Flugplatz Soest/Bad Sassendorf

Für EDLZ sind keine METAR/TAF Berichte vorhanden.
Es werden die Flugwettermeldungen vom Flugplatz Paderborn Lippstadt in 28 km Entfernung angezeigt.

Bericht für EDLP

vom 25.01. um 22:20 UTC

Wind 4 kt aus 110°

Sichtweite 4200 m

feuchter Dunst

aufgebrochene Bewölkung in 200 ft

aufgebrochene Bewölkung in 500 ft

Temperatur -1.0°C

Taupunkt -1.0°C

Luftfeuchtigkeit 100%

Luftdruck 1019 hPa

EDLP 252220Z 11004KT 4200 BR BKN002 BKN005 M01/M01 Q1019

Prognose für EDLP

vom 25.01. um 00:00 UTC

Am 25.01. zwischen 00:00 UTC und 00:00 UTC

Wind 6 kt aus 140°

Sichtweite 2000 m

feuchter Dunst

bedeckt in 400 ft


Zwischen 00:00 UTC und 00:00 UTC zeitweise

Sichtweite 6000 m

aufgelockert bewölkt in 400 ft

aufgebrochene Bewölkung in 1500 ft


Zwischen 00:00 und 00:00 UTC übergehend zu

Wind 6 kt aus 140°

Sichtweite 10 km oder mehr

feuchter Dunst

aufgelockert bewölkt in 1500 ft

TAF AMD EDLP 252120Z 2521/2618 14006KT 2000 BR OVC004 TEMPO 2600/2606 6000 SCT004 BKN015 BECMG 2606/2609 9999 SCT015
Impressum